Time;durP1;ratioP1;P1;durP2;ratioP2;P2;SDS_P1;SDS_P2;PMS_P1;PMS_P2;Temp;Humidity;BMP_temperature;BMP_pressure;BME280_temperature;BME280_humidity;BME280_pressure;Samples;Min_cycle;Max_cycle;Signal;HPM_P1;HPM_P2
2022/11/17 00:02:08;;;;;;;8.88;6.35;;;8.40;99.90;;;;;;5199476;28;20047;-80
2022/11/17 00:05:05;;;;;;;13.05;7.00;;;8.40;99.90;;;;;;5200276;28;20262;-80
2022/11/17 00:07:59;;;;;;;10.07;7.10;;;8.40;99.90;;;;;;5199527;28;20227;-80
2022/11/17 00:10:52;;;;;;;10.82;7.07;;;8.50;99.90;;;;;;5188371;28;20030;-79
2022/11/17 00:16:57;;;;;;;9.60;6.93;;;8.30;99.90;;;;;;5187795;28;20019;-81
2022/11/17 00:23:03;;;;;;;10.38;6.80;;;8.20;99.90;;;;;;5182287;28;20026;-81
2022/11/17 00:26:01;;;;;;;8.88;6.72;;;8.20;99.90;;;;;;5173352;28;20043;-79
2022/11/17 00:29:03;;;;;;;8.77;6.63;;;8.30;99.90;;;;;;5189088;28;20034;-81
2022/11/17 00:35:10;;;;;;;10.10;7.40;;;8.30;99.90;;;;;;5189083;28;20021;-81
2022/11/17 00:38:19;;;;;;;12.75;7.50;;;8.30;99.90;;;;;;5182720;28;20331;-82
2022/11/17 00:41:10;;;;;;;11.65;8.15;;;8.30;99.90;;;;;;5187891;28;20025;-80
2022/11/17 00:44:02;;;;;;;8.68;6.43;;;8.30;99.90;;;;;;5166824;28;20052;-80
2022/11/17 00:46:56;;;;;;;11.73;7.88;;;8.20;99.90;;;;;;5191339;28;20030;-81
2022/11/17 00:49:53;;;;;;;12.63;8.32;;;8.20;99.90;;;;;;5173498;28;20032;-79
2022/11/17 00:52:48;;;;;;;14.05;8.00;;;8.20;99.90;;;;;;5188726;28;20037;-79
2022/11/17 00:55:43;;;;;;;11.38;7.60;;;8.10;99.90;;;;;;5173826;28;20029;-80
2022/11/17 00:58:40;;;;;;;10.88;7.22;;;8.10;99.90;;;;;;5188461;28;20217;-80
2022/11/17 01:01:35;;;;;;;10.77;7.57;;;8.10;99.90;;;;;;5174733;28;20038;-83
2022/11/17 01:04:29;;;;;;;10.88;7.15;;;8.10;99.90;;;;;;5176494;28;20303;-81
2022/11/17 01:07:21;;;;;;;12.27;8.25;;;8.10;99.90;;;;;;5175661;28;20218;-79
2022/11/17 01:10:15;;;;;;;12.43;6.97;;;8.10;99.90;;;;;;5187394;28;20026;-81
2022/11/17 01:13:09;;;;;;;10.77;7.30;;;8.20;99.90;;;;;;5178713;28;20043;-81
2022/11/17 01:16:05;;;;;;;12.13;7.65;;;8.20;99.90;;;;;;5166966;28;20239;-79
2022/11/17 01:19:02;;;;;;;12.52;8.10;;;8.20;99.90;;;;;;5167443;28;20482;-79
2022/11/17 01:21:56;;;;;;;11.35;7.38;;;8.30;99.90;;;;;;5153311;28;20032;-81
2022/11/17 01:24:50;;;;;;;11.70;8.03;;;8.30;99.90;;;;;;5153111;28;20042;-81
2022/11/17 01:27:41;;;;;;;12.85;7.90;;;8.30;99.90;;;;;;5163431;28;20034;-81
2022/11/17 01:30:35;;;;;;;13.57;7.47;;;8.30;99.90;;;;;;5187205;28;20030;-80
2022/11/17 01:33:30;;;;;;;10.30;7.35;;;8.30;99.90;;;;;;5173942;28;20022;-81
2022/11/17 01:36:27;;;;;;;10.20;7.65;;;8.30;99.90;;;;;;5174225;28;20021;-80
2022/11/17 01:39:19;;;;;;;9.63;7.15;;;8.20;99.90;;;;;;5187611;28;20029;-82
2022/11/17 01:42:22;;;;;;;12.63;7.28;;;8.20;99.90;;;;;;5185730;28;20026;-82
2022/11/17 01:45:22;;;;;;;12.25;7.35;;;8.20;99.90;;;;;;5188473;28;20051;-80
2022/11/17 01:48:14;;;;;;;10.68;6.82;;;8.10;99.90;;;;;;5185944;28;20026;-79
2022/11/17 01:51:10;;;;;;;12.00;8.20;;;8.10;99.90;;;;;;5173303;28;20032;-79
2022/11/17 01:54:02;;;;;;;10.43;7.53;;;8.10;99.90;;;;;;5187143;28;20030;-79
2022/11/17 01:57:01;;;;;;;12.15;7.07;;;8.10;99.90;;;;;;5176549;28;20034;-80
2022/11/17 02:00:02;;;;;;;11.30;7.43;;;8.10;99.90;;;;;;5153304;28;20036;-79
2022/11/17 02:02:56;;;;;;;12.15;7.53;;;8.10;99.90;;;;;;5182965;28;20269;-78
2022/11/17 02:06:07;;;;;;;12.13;7.68;;;7.90;99.90;;;;;;5176089;28;20058;-78
2022/11/17 02:09:03;;;;;;;14.70;7.68;;;7.80;99.90;;;;;;5186246;28;20045;-77
2022/11/17 02:12:01;;;;;;;10.52;6.80;;;7.70;99.90;;;;;;5156335;28;20030;-78
2022/11/17 02:14:58;;;;;;;12.25;6.53;;;7.60;99.90;;;;;;5164856;28;20106;-79
2022/11/17 02:17:53;;;;;;;11.93;6.72;;;7.50;99.90;;;;;;5165785;28;20056;-79
2022/11/17 02:21:02;;;;;;;11.90;7.53;;;7.40;99.90;;;;;;5163706;28;20331;-79
2022/11/17 02:24:06;;;;;;;11.88;7.97;;;7.30;99.90;;;;;;5166270;28;20235;-78
2022/11/17 02:27:38;;;;;;;12.38;7.18;;;7.30;99.90;;;;;;5165210;28;20027;-80
2022/11/17 02:30:46;;;;;;;12.40;7.07;;;7.20;99.90;;;;;;5151721;28;20025;-77
2022/11/17 02:33:53;;;;;;;11.50;7.38;;;7.20;99.90;;;;;;5165983;28;20033;-78
2022/11/17 02:37:26;;;;;;;12.05;7.22;;;7.20;99.90;;;;;;5164963;28;20559;-77
2022/11/17 02:40:29;;;;;;;12.52;7.55;;;7.30;99.90;;;;;;5155320;28;20338;-78
2022/11/17 02:47:05;;;;;;;12.80;8.27;;;7.10;99.90;;;;;;5171007;28;20028;-78
2022/11/17 02:50:05;;;;;;;12.68;7.97;;;7.00;99.90;;;;;;5168349;28;20339;-78
2022/11/17 02:52:59;;;;;;;11.50;7.88;;;6.80;99.90;;;;;;5168363;28;20026;-78
2022/11/17 02:55:52;;;;;;;14.63;8.10;;;6.70;99.90;;;;;;5145090;28;20026;-78
2022/11/17 02:58:48;;;;;;;13.40;7.40;;;6.50;99.90;;;;;;5159513;28;20027;-79
2022/11/17 03:02:12;;;;;;;12.05;7.53;;;6.40;99.90;;;;;;5168732;28;20047;-79
2022/11/17 03:05:16;;;;;;;11.85;8.10;;;6.40;99.90;;;;;;5175429;28;20054;-78
2022/11/17 03:08:13;;;;;;;16.60;8.60;;;6.50;99.90;;;;;;5175606;28;20018;-77
2022/11/17 03:11:07;;;;;;;11.50;8.45;;;6.50;99.90;;;;;;5185768;28;20117;-78
2022/11/17 03:14:18;;;;;;;14.77;9.20;;;6.60;99.90;;;;;;5173566;28;20025;-78
2022/11/17 03:17:34;;;;;;;14.00;8.63;;;6.70;99.90;;;;;;5174201;28;20054;-77
2022/11/17 03:20:38;;;;;;;15.88;8.70;;;6.70;99.90;;;;;;5163404;28;20025;-79
2022/11/17 03:23:42;;;;;;;17.40;9.10;;;6.70;99.90;;;;;;5177031;28;20057;-77
2022/11/17 03:26:38;;;;;;;16.08;9.63;;;6.60;99.90;;;;;;5171100;28;20359;-79
2022/11/17 03:29:33;;;;;;;17.27;9.48;;;6.70;99.90;;;;;;5174707;28;20038;-77
2022/11/17 03:32:27;;;;;;;16.60;9.30;;;6.80;99.90;;;;;;5182985;28;20032;-79
2022/11/17 03:35:32;;;;;;;14.48;8.77;;;6.80;99.90;;;;;;5170369;28;20036;-77
2022/11/17 03:38:30;;;;;;;17.80;9.70;;;6.70;99.90;;;;;;5160283;28;20214;-77
2022/11/17 03:41:26;;;;;;;17.35;9.35;;;6.80;99.90;;;;;;5176244;28;20032;-77
2022/11/17 03:44:20;;;;;;;17.42;9.80;;;6.90;99.90;;;;;;5177007;28;20044;-78
2022/11/17 03:47:13;;;;;;;16.33;10.10;;;7.10;99.90;;;;;;5161927;28;20028;-79
2022/11/17 03:50:26;;;;;;;17.45;9.93;;;7.10;99.90;;;;;;5166121;28;20552;-78
2022/11/17 03:53:18;;;;;;;19.65;10.23;;;7.00;99.90;;;;;;5182587;28;20018;-78
2022/11/17 03:56:16;;;;;;;21.55;10.75;;;7.00;99.90;;;;;;5179874;28;20292;-79
2022/11/17 03:59:37;;;;;;;21.85;10.48;;;7.00;99.90;;;;;;5210684;28;20017;-79
2022/11/17 04:02:29;;;;;;;17.75;10.35;;;7.10;99.90;;;;;;5201376;28;20040;-80
2022/11/17 04:05:23;;;;;;;18.58;10.40;;;7.10;99.90;;;;;;5175724;28;20063;-78
2022/11/17 04:08:18;;;;;;;19.02;10.27;;;7.10;99.90;;;;;;5184315;28;20522;-80
2022/11/17 04:17:40;;;;;;;17.50;9.93;;;7.20;99.90;;;;;;5203345;28;20525;-79
2022/11/17 04:20:35;;;;;;;14.95;8.40;;;7.20;99.90;;;;;;5195255;28;20212;-78
2022/11/17 04:23:32;;;;;;;16.50;9.88;;;7.20;99.90;;;;;;5175463;28;20042;-79
2022/11/17 04:29:33;;;;;;;15.77;9.93;;;7.30;99.90;;;;;;5170226;28;20022;-78
2022/11/17 04:32:30;;;;;;;16.92;9.95;;;7.40;99.90;;;;;;5173114;28;20021;-78
2022/11/17 04:35:25;;;;;;;18.42;9.93;;;7.40;99.90;;;;;;5188422;28;20040;-79
2022/11/17 04:38:19;;;;;;;17.97;10.13;;;7.50;99.90;;;;;;5177104;28;20211;-79
2022/11/17 04:44:27;;;;;;;18.80;9.95;;;7.40;99.90;;;;;;5190078;28;20025;-78
2022/11/17 04:47:22;;;;;;;19.40;11.48;;;7.30;99.90;;;;;;5186084;28;20045;-79
2022/11/17 04:50:21;;;;;;;17.92;10.82;;;7.30;99.90;;;;;;5187723;28;20021;-80
2022/11/17 04:53:18;;;;;;;19.63;11.10;;;7.30;99.90;;;;;;5186764;28;20022;-77
2022/11/17 04:56:13;;;;;;;17.05;9.82;;;7.30;99.90;;;;;;5187191;28;20018;-77
2022/11/17 04:59:07;;;;;;;18.13;10.57;;;7.30;99.90;;;;;;5166346;28;20102;-77
2022/11/17 05:01:59;;;;;;;18.67;10.10;;;7.30;99.90;;;;;;5167391;28;20037;-79
2022/11/17 05:04:56;;;;;;;14.85;9.40;;;7.30;99.90;;;;;;5176741;28;20053;-79
2022/11/17 05:07:50;;;;;;;13.68;9.05;;;7.20;99.90;;;;;;5186005;28;20018;-77
2022/11/17 05:13:54;;;;;;;19.15;11.02;;;7.20;99.90;;;;;;5185799;28;20056;-76
2022/11/17 05:17:09;;;;;;;16.40;9.73;;;7.10;99.90;;;;;;5165881;28;20361;-77
2022/11/17 05:20:01;;;;;;;15.98;9.90;;;7.10;99.90;;;;;;5174001;28;20026;-78
2022/11/17 05:26:05;;;;;;;16.92;10.98;;;6.90;99.90;;;;;;5185415;28;20104;-79
2022/11/17 05:29:03;;;;;;;20.63;10.73;;;6.90;99.90;;;;;;5171611;28;20076;-78
2022/11/17 05:31:54;;;;;;;19.52;11.13;;;6.90;99.90;;;;;;5172989;28;20211;-78
2022/11/17 05:34:49;;;;;;;17.30;10.38;;;6.90;99.90;;;;;;5166044;28;20106;-78
2022/11/17 05:37:40;;;;;;;18.63;10.40;;;6.90;99.90;;;;;;5153478;28;20033;-78
2022/11/17 05:40:34;;;;;;;19.65;9.88;;;6.80;99.90;;;;;;5180185;28;20022;-78
2022/11/17 05:43:31;;;;;;;18.50;10.90;;;6.70;99.90;;;;;;5171601;28;20050;-79
2022/11/17 05:46:31;;;;;;;16.75;10.70;;;6.80;99.90;;;;;;5174525;28;20033;-78
2022/11/17 05:49:25;;;;;;;15.30;8.85;;;6.80;99.90;;;;;;5176429;28;20026;-78
2022/11/17 05:52:19;;;;;;;15.20;9.18;;;6.80;99.90;;;;;;5173589;28;20084;-79
2022/11/17 05:55:13;;;;;;;18.05;10.40;;;6.90;99.90;;;;;;5182820;28;20048;-78
2022/11/17 05:58:27;;;;;;;15.67;9.90;;;6.80;99.90;;;;;;5167864;28;20082;-79
2022/11/17 06:01:20;;;;;;;18.35;11.43;;;6.70;99.90;;;;;;5189928;28;20037;-79
2022/11/17 06:04:18;;;;;;;21.38;12.57;;;6.80;99.90;;;;;;5187352;28;20041;-78
2022/11/17 06:07:09;;;;;;;73.95;42.90;;;6.70;99.90;;;;;;5178468;28;20026;-78
2022/11/17 06:10:01;;;;;;;82.90;42.25;;;6.70;99.90;;;;;;5178543;28;20026;-78
2022/11/17 06:12:52;;;;;;;39.03;25.80;;;6.80;99.90;;;;;;5192847;28;20219;-78
2022/11/17 06:15:47;;;;;;;104.93;78.03;;;6.80;99.90;;;;;;5175169;28;20040;-78
2022/11/17 06:18:48;;;;;;;36.58;25.73;;;6.80;99.90;;;;;;5204624;28;20029;-79
2022/11/17 06:21:40;;;;;;;20.63;13.05;;;6.90;99.90;;;;;;5189383;28;20030;-79
2022/11/17 06:24:32;;;;;;;16.70;10.75;;;6.90;99.90;;;;;;5189322;28;20048;-78
2022/11/17 06:27:24;;;;;;;19.70;13.02;;;6.90;99.90;;;;;;5182717;28;20034;-80
2022/11/17 06:30:16;;;;;;;24.77;16.90;;;6.90;99.90;;;;;;5175036;28;20034;-78
2022/11/17 06:33:13;;;;;;;17.70;10.48;;;7.00;99.90;;;;;;5175384;28;20026;-79
2022/11/17 06:36:07;;;;;;;21.60;11.93;;;7.10;99.90;;;;;;5190270;28;20021;-79
2022/11/17 06:38:59;;;;;;;23.98;14.52;;;7.10;99.90;;;;;;5129307;28;20045;-80
2022/11/17 06:41:50;;;;;;;14.27;9.73;;;7.20;99.90;;;;;;5105849;29;20031;-79
2022/11/17 06:44:44;;;;;;;31.08;18.83;;;7.10;99.90;;;;;;5115664;29;20043;-79
2022/11/17 06:47:40;;;;;;;22.45;13.75;;;7.10;99.90;;;;;;5133197;28;20047;-79
2022/11/17 06:50:34;;;;;;;19.90;11.95;;;7.10;99.90;;;;;;5128779;28;20035;-77
2022/11/17 06:53:31;;;;;;;25.63;14.45;;;7.20;99.90;;;;;;5128558;29;20035;-77
2022/11/17 06:56:23;;;;;;;17.63;10.00;;;7.30;99.90;;;;;;5128755;29;20225;-77
2022/11/17 06:59:17;;;;;;;20.27;12.65;;;7.30;99.90;;;;;;5132635;28;20600;-79
2022/11/17 07:02:16;;;;;;;21.60;13.15;;;7.30;99.90;;;;;;5140265;28;20030;-78
2022/11/17 07:05:11;;;;;;;23.92;13.27;;;7.30;99.90;;;;;;5087120;29;20058;-78
2022/11/17 07:08:08;;;;;;;19.30;11.93;;;7.20;99.90;;;;;;5104524;28;20044;-77
2022/11/17 07:11:08;;;;;;;17.60;9.93;;;7.30;99.90;;;;;;5190912;28;20036;-76
2022/11/17 07:14:00;;;;;;;15.93;10.57;;;7.40;99.90;;;;;;5174138;28;20032;-76
2022/11/17 07:17:00;;;;;;;21.65;12.82;;;7.50;99.90;;;;;;5189498;28;20025;-78
2022/11/17 07:19:54;;;;;;;13.65;8.80;;;7.60;99.90;;;;;;5162506;28;20021;-77
2022/11/17 07:22:47;;;;;;;17.88;11.38;;;7.40;99.90;;;;;;5190240;28;20037;-77
2022/11/17 07:25:45;;;;;;;18.75;11.57;;;7.40;99.90;;;;;;5176037;28;20044;-78
2022/11/17 07:28:40;;;;;;;16.42;10.73;;;7.30;99.90;;;;;;5185495;28;20023;-78
2022/11/17 07:31:35;;;;;;;14.45;9.90;;;7.50;99.90;;;;;;5175761;28;20399;-78
2022/11/17 07:34:29;;;;;;;19.13;11.40;;;7.60;99.90;;;;;;5161247;28;20044;-78
2022/11/17 07:37:23;;;;;;;16.58;9.95;;;7.70;99.90;;;;;;5171699;28;20034;-77
2022/11/17 07:40:14;;;;;;;16.65;8.63;;;7.80;99.90;;;;;;5170515;28;20034;-77
2022/11/17 07:43:06;;;;;;;16.63;9.07;;;7.80;99.90;;;;;;5179557;28;20311;-78
2022/11/17 07:46:27;;;;;;;54.47;29.08;;;7.90;99.90;;;;;;5201810;28;20067;-78
2022/11/17 07:49:23;;;;;;;14.50;9.60;;;8.00;99.90;;;;;;5186711;28;20029;-78
2022/11/17 07:52:17;;;;;;;33.88;20.25;;;8.10;99.90;;;;;;5163588;28;20042;-78
2022/11/17 07:55:08;;;;;;;22.23;15.20;;;8.40;99.90;;;;;;5212354;28;20036;-77
2022/11/17 07:58:00;;;;;;;12.40;7.25;;;8.80;99.90;;;;;;5197259;28;20154;-78
2022/11/17 08:00:56;;;;;;;12.27;7.95;;;9.20;99.90;;;;;;5190893;28;20627;-78
2022/11/17 08:03:48;;;;;;;11.23;7.18;;;9.60;99.90;;;;;;5211269;28;20037;-77
2022/11/17 08:06:39;;;;;;;10.82;6.70;;;9.90;99.90;;;;;;5169821;28;20056;-78
2022/11/17 08:09:36;;;;;;;10.25;6.43;;;9.80;99.90;;;;;;5209646;28;20017;-78
2022/11/17 08:12:29;;;;;;;11.75;6.50;;;9.50;99.90;;;;;;5208715;28;20021;-77
2022/11/17 08:15:21;;;;;;;11.45;7.18;;;9.30;99.90;;;;;;5191089;28;20037;-77
2022/11/17 08:18:13;;;;;;;10.63;7.20;;;9.20;99.90;;;;;;5188034;28;20462;-77
2022/11/17 08:21:10;;;;;;;11.88;8.55;;;9.30;99.90;;;;;;5188688;28;20024;-77
2022/11/17 08:24:02;;;;;;;116.82;92.30;;;9.40;99.90;;;;;;5208521;28;20040;-79
2022/11/17 08:26:56;;;;;;;28.48;21.25;;;9.40;99.90;;;;;;5193591;28;20255;-78
2022/11/17 08:29:54;;;;;;;23.10;18.02;;;9.60;99.90;;;;;;5181389;28;20246;-77
2022/11/17 08:32:53;;;;;;;40.97;27.90;;;9.80;99.90;;;;;;5201162;28;20021;-79
2022/11/17 08:35:46;;;;;;;99.13;69.15;;;9.90;99.90;;;;;;5187910;28;20029;-79
2022/11/17 08:38:40;;;;;;;326.23;211.35;;;10.10;99.90;;;;;;5188716;28;20034;-78
2022/11/17 08:41:32;;;;;;;7.43;6.40;;;10.00;99.90;;;;;;5184695;28;20319;-79
2022/11/17 08:44:31;;;;;;;32.50;19.77;;;10.00;99.90;;;;;;5189564;28;20037;-77
2022/11/17 08:47:25;;;;;;;37.15;28.83;;;10.00;99.90;;;;;;5192072;28;20322;-78
2022/11/17 08:50:19;;;;;;;159.70;94.03;;;10.30;99.90;;;;;;5181545;28;20319;-79
2022/11/17 08:53:16;;;;;;;129.13;64.33;;;10.70;99.90;;;;;;5172401;28;20029;-78
2022/11/17 08:56:11;;;;;;;22.95;12.82;;;10.90;99.90;;;;;;5187979;28;20247;-78
2022/11/17 08:59:03;;;;;;;6.57;4.80;;;11.20;99.90;;;;;;5191045;28;20028;-78
2022/11/17 09:01:57;;;;;;;12.32;6.47;;;11.80;99.90;;;;;;5188933;28;20051;-78
2022/11/17 09:04:49;;;;;;;41.50;29.30;;;12.50;99.90;;;;;;5182051;28;20046;-79
2022/11/17 09:07:41;;;;;;;56.00;44.05;;;12.90;99.90;;;;;;5203383;28;20017;-79
2022/11/17 09:10:32;;;;;;;35.88;30.00;;;13.30;99.90;;;;;;5193903;28;20225;-77
2022/11/17 09:13:24;;;;;;;15.10;10.90;;;13.30;99.90;;;;;;5162439;28;20060;-80
2022/11/17 09:16:17;;;;;;;623.78;510.98;;;13.50;99.90;;;;;;5168870;28;20057;-79
2022/11/17 09:19:09;;;;;;;223.50;181.15;;;13.30;99.90;;;;;;5192683;28;20039;-77
2022/11/17 09:22:00;;;;;;;9.52;6.25;;;13.00;99.90;;;;;;5167908;28;20320;-80
2022/11/17 09:24:57;;;;;;;141.40;95.60;;;12.90;99.90;;;;;;5167706;28;20040;-77
2022/11/17 09:27:51;;;;;;;63.38;44.80;;;12.70;99.90;;;;;;5166304;28;20031;-78
2022/11/17 09:30:43;;;;;;;135.25;107.75;;;12.20;99.90;;;;;;5172673;28;20014;-77
2022/11/17 09:33:35;;;;;;;572.63;440.60;;;12.10;99.90;;;;;;5172238;28;20041;-79
2022/11/17 09:36:27;;;;;;;164.80;122.82;;;11.80;99.90;;;;;;5166898;28;20026;-78
2022/11/17 09:39:18;;;;;;;53.65;42.72;;;11.90;99.90;;;;;;5159642;28;20030;-78
2022/11/17 09:42:14;;;;;;;204.57;130.30;;;11.80;99.90;;;;;;5201284;28;20548;-78
2022/11/17 09:45:33;;;;;;;14.75;9.65;;;11.90;99.90;;;;;;5191939;28;20038;-79
2022/11/17 09:48:50;;;;;;;31.20;20.02;;;11.90;99.90;;;;;;5177158;28;20119;-79
2022/11/17 09:51:48;;;;;;;11.73;8.88;;;12.00;99.90;;;;;;5156476;28;20014;-77
2022/11/17 09:54:53;;;;;;;76.45;47.58;;;12.10;99.90;;;;;;5171544;28;20354;-79
2022/11/17 09:57:53;;;;;;;17.67;13.75;;;12.30;99.90;;;;;;5172570;28;20033;-78
2022/11/17 10:00:55;;;;;;;253.57;193.52;;;12.20;99.90;;;;;;5153175;28;20040;-79
2022/11/17 10:03:52;;;;;;;18.90;12.60;;;12.10;99.90;;;;;;5183247;28;20026;-77
2022/11/17 10:06:53;;;;;;;12.30;9.25;;;12.10;99.90;;;;;;5165401;28;20049;-79
2022/11/17 10:09:49;;;;;;;58.15;50.47;;;11.60;99.90;;;;;;5193668;28;20030;-77
2022/11/17 10:12:50;;;;;;;11.07;8.82;;;11.70;99.90;;;;;;5198123;28;20018;-78
2022/11/17 10:15:48;;;;;;;21.15;14.90;;;11.70;99.90;;;;;;5201236;28;20034;-79
2022/11/17 10:18:39;;;;;;;17.05;10.45;;;11.90;99.90;;;;;;5185883;28;20022;-78
2022/11/17 10:21:33;;;;;;;29.30;18.13;;;11.80;99.90;;;;;;5187776;28;20032;-78
2022/11/17 10:24:43;;;;;;;1028.65;719.47;;;11.80;99.90;;;;;;5202407;28;20067;-77
2022/11/17 10:27:35;;;;;;;73.07;58.28;;;11.80;99.90;;;;;;5203085;28;20022;-78
2022/11/17 10:30:26;;;;;;;289.77;169.23;;;11.90;99.90;;;;;;5217976;28;20021;-80
2022/11/17 10:33:38;;;;;;;25.15;16.98;;;12.00;99.90;;;;;;5204363;28;20036;-78
2022/11/17 10:36:31;;;;;;;77.65;44.13;;;12.10;99.90;;;;;;5163533;28;20023;-77
2022/11/17 10:39:36;;;;;;;14.05;10.07;;;12.20;99.90;;;;;;5163861;28;20211;-79
2022/11/17 10:42:27;;;;;;;12.05;8.38;;;12.00;99.90;;;;;;5178703;28;20032;-78
2022/11/17 10:45:21;;;;;;;32.25;20.65;;;12.00;99.90;;;;;;5179399;28;20032;-78
2022/11/17 10:48:28;;;;;;;76.72;46.58;;;11.90;99.90;;;;;;5197479;28;20025;-80
2022/11/17 10:51:31;;;;;;;13.23;9.18;;;11.70;99.90;;;;;;5197980;28;20018;-77
2022/11/17 10:54:25;;;;;;;12.57;8.75;;;11.70;99.90;;;;;;5197294;28;20052;-78
2022/11/17 10:57:21;;;;;;;11.50;8.02;;;11.80;99.90;;;;;;5180193;28;20025;-77
2022/11/17 11:00:30;;;;;;;26.92;17.58;;;11.80;99.90;;;;;;5177445;28;20026;-78
2022/11/17 11:03:28;;;;;;;37.72;23.13;;;11.70;99.90;;;;;;5171459;28;20052;-79
2022/11/17 11:06:26;;;;;;;35.38;21.48;;;11.60;99.90;;;;;;5178857;28;20057;-79
2022/11/17 11:09:21;;;;;;;130.57;94.40;;;11.30;99.90;;;;;;5196705;28;20026;-79
2022/11/17 11:12:19;;;;;;;170.80;88.55;;;11.30;99.90;;;;;;5197768;28;20023;-79
2022/11/17 11:15:26;;;;;;;12.68;9.13;;;11.30;99.90;;;;;;5212113;28;20025;-79
2022/11/17 11:18:21;;;;;;;21.55;13.98;;;11.00;99.90;;;;;;5191636;28;20030;-77
2022/11/17 11:21:30;;;;;;;29.45;21.33;;;10.80;99.90;;;;;;5190120;28;20370;-77
2022/11/17 11:24:45;;;;;;;20.02;17.17;;;10.70;99.90;;;;;;5197914;28;20368;-77
2022/11/17 11:27:58;;;;;;;32.70;29.10;;;10.50;99.90;;;;;;5185031;28;20029;-77
2022/11/17 11:31:14;;;;;;;24.75;20.35;;;10.40;99.90;;;;;;5155154;28;20188;-78
2022/11/17 11:34:27;;;;;;;26.85;22.15;;;10.20;99.90;;;;;;5168705;28;20032;-78
2022/11/17 11:37:24;;;;;;;485.33;344.58;;;10.20;99.90;;;;;;5168810;28;20223;-79
2022/11/17 11:40:27;;;;;;;38.63;27.92;;;10.10;99.90;;;;;;5168722;28;20026;-79
2022/11/17 11:44:06;;;;;;;126.55;88.18;;;10.10;99.90;;;;;;5160746;28;20282;-79
2022/11/17 11:47:25;;;;;;;351.25;236.23;;;10.10;99.90;;;;;;5106328;28;20039;-79
2022/11/17 11:50:28;;;;;;;30.98;20.25;;;10.20;99.90;;;;;;5105321;29;20115;-79
2022/11/17 11:53:55;;;;;;;285.50;191.50;;;10.30;99.90;;;;;;5105574;29;20325;-79
2022/11/17 11:56:53;;;;;;;62.88;42.13;;;10.30;99.90;;;;;;5105782;29;20036;-79
2022/11/17 12:00:03;;;;;;;507.13;379.15;;;10.20;99.90;;;;;;5106729;29;20041;-79
2022/11/17 12:03:11;;;;;;;95.18;59.90;;;10.20;99.90;;;;;;5122184;28;20179;-79
2022/11/17 12:06:41;;;;;;;129.52;86.38;;;9.90;99.90;;;;;;5080910;29;20043;-78
2022/11/17 12:09:44;;;;;;;52.15;26.23;;;9.80;99.90;;;;;;5092436;29;20031;-79
2022/11/17 12:12:38;;;;;;;27.85;18.10;;;9.80;99.90;;;;;;5153832;28;20191;-77
2022/11/17 12:15:33;;;;;;;27.95;18.48;;;9.90;99.90;;;;;;5187565;28;20036;-77
2022/11/17 12:18:27;;;;;;;39.58;17.88;;;9.80;99.90;;;;;;5187711;28;20033;-77
2022/11/17 12:21:26;;;;;;;26.25;13.85;;;9.70;99.90;;;;;;5187379;28;20038;-77
2022/11/17 12:24:31;;;;;;;30.98;20.80;;;9.70;99.90;;;;;;5182408;28;20223;-79
2022/11/17 12:27:34;;;;;;;15.57;9.65;;;9.90;99.90;;;;;;5167612;28;20090;-78
2022/11/17 12:30:44;;;;;;;16.75;9.77;;;10.10;99.90;;;;;;5175387;28;20034;-77
2022/11/17 12:34:09;;;;;;;35.35;26.58;;;10.10;99.90;;;;;;5183927;28;20036;-78
2022/11/17 12:37:13;;;;;;;14.67;11.03;;;9.90;99.90;;;;;;5179254;28;20310;-78
2022/11/17 12:40:28;;;;;;;17.95;9.82;;;9.70;99.90;;;;;;5157830;28;20032;-78
2022/11/17 12:43:26;;;;;;;29.90;25.08;;;9.70;99.90;;;;;;5178045;28;20040;-78
2022/11/17 12:46:32;;;;;;;32.20;24.33;;;9.60;99.90;;;;;;5182980;28;20033;-78
2022/11/17 12:49:36;;;;;;;29.00;15.73;;;9.80;99.90;;;;;;5183870;28;20043;-78
2022/11/17 12:53:02;;;;;;;15.57;9.85;;;9.70;99.90;;;;;;5179406;28;20030;-78
2022/11/17 12:56:31;;;;;;;23.98;13.10;;;9.80;99.90;;;;;;5176567;28;20018;-78
2022/11/17 12:59:54;;;;;;;23.50;11.77;;;9.80;99.90;;;;;;5181377;28;20080;-78
2022/11/17 13:03:05;;;;;;;64.25;56.00;;;9.70;99.90;;;;;;5165816;28;20038;-78
2022/11/17 13:06:13;;;;;;;31.10;24.02;;;9.70;99.90;;;;;;5149578;28;20053;-78
2022/11/17 13:09:06;;;;;;;31.55;27.65;;;9.70;99.90;;;;;;5188790;28;20043;-78
2022/11/17 13:12:00;;;;;;;16.45;10.15;;;9.60;99.90;;;;;;5170518;28;20017;-78
2022/11/17 13:15:04;;;;;;;15.13;10.35;;;9.60;99.90;;;;;;5181283;28;20030;-77
2022/11/17 13:17:57;;;;;;;16.73;8.32;;;9.40;99.90;;;;;;5177980;28;20558;-78
2022/11/17 13:20:51;;;;;;;16.63;9.18;;;9.30;99.90;;;;;;5182140;28;20032;-78
2022/11/17 13:23:44;;;;;;;15.00;7.80;;;9.30;99.90;;;;;;5180942;28;20033;-78
2022/11/17 13:26:41;;;;;;;110.40;99.45;;;9.20;99.90;;;;;;5176903;28;20021;-78
2022/11/17 13:29:32;;;;;;;23.05;15.88;;;9.20;99.90;;;;;;5179616;28;20318;-78
2022/11/17 13:32:28;;;;;;;202.60;166.55;;;9.30;99.90;;;;;;5203417;28;20225;-78
2022/11/17 13:35:27;;;;;;;286.00;234.73;;;9.20;99.90;;;;;;5208450;28;20041;-78
2022/11/17 13:38:23;;;;;;;76.65;57.15;;;9.30;99.90;;;;;;5208109;28;20049;-78
2022/11/17 13:41:16;;;;;;;45.05;30.70;;;9.20;99.90;;;;;;5206012;28;20028;-78
2022/11/17 13:44:17;;;;;;;22.73;14.60;;;9.20;99.90;;;;;;5211240;28;20022;-78
2022/11/17 13:47:25;;;;;;;25.85;16.98;;;9.20;99.90;;;;;;5207616;28;20032;-78
2022/11/17 13:50:28;;;;;;;19.45;15.38;;;9.30;99.90;;;;;;5204300;28;20029;-78
2022/11/17 13:53:24;;;;;;;25.20;17.13;;;9.20;99.90;;;;;;5212645;28;20033;-76
2022/11/17 13:56:35;;;;;;;22.63;15.55;;;9.30;99.90;;;;;;5205828;28;20024;-77
2022/11/17 13:59:32;;;;;;;15.88;10.43;;;9.40;99.90;;;;;;5208255;28;20021;-78
2022/11/17 14:02:28;;;;;;;29.80;20.42;;;9.30;99.90;;;;;;5206027;28;20340;-78
2022/11/17 14:05:24;;;;;;;55.33;40.63;;;9.30;99.90;;;;;;5194821;28;20041;-78
2022/11/17 14:08:28;;;;;;;18.23;12.50;;;9.40;99.90;;;;;;5200787;28;20044;-78
2022/11/17 14:11:20;;;;;;;39.97;26.85;;;9.40;99.90;;;;;;5197964;28;20193;-78
2022/11/17 14:13:57;;;;;;;15.60;10.07;;;9.40;99.90;;;;;;5172449;28;20021;-78
2022/11/17 14:16:40;;;;;;;23.00;14.48;;;9.50;99.90;;;;;;5183160;28;20033;-78
2022/11/17 14:19:16;;;;;;;13.85;9.38;;;9.50;99.90;;;;;;5193251;28;20029;-78
2022/11/17 14:21:59;;;;;;;11.77;6.13;;;9.60;99.90;;;;;;5157943;28;20043;-78
2022/11/17 14:24:31;;;;;;;8.23;5.80;;;9.60;99.90;;;;;;5201543;28;20022;-78
2022/11/17 14:27:12;;;;;;;6.28;4.57;;;9.60;99.90;;;;;;5188745;28;20041;-78
2022/11/17 14:29:43;;;;;;;6.43;4.63;;;9.60;99.90;;;;;;5190350;28;20034;-78
2022/11/17 14:32:14;;;;;;;10.15;6.32;;;9.60;99.90;;;;;;5198805;28;20055;-77
2022/11/17 14:34:46;;;;;;;7.90;4.90;;;9.60;99.90;;;;;;5184849;28;20032;-79
2022/11/17 14:37:17;;;;;;;7.95;5.28;;;9.60;99.90;;;;;;5204045;28;20029;-78
2022/11/17 14:39:48;;;;;;;6.03;4.30;;;9.70;99.90;;;;;;5200810;28;20040;-78
2022/11/17 14:42:19;;;;;;;6.80;4.63;;;9.70;99.90;;;;;;5198770;28;20048;-79
2022/11/17 14:44:51;;;;;;;9.02;6.82;;;9.70;99.90;;;;;;5209114;28;20266;-79
2022/11/17 14:47:22;;;;;;;15.35;9.95;;;9.70;99.90;;;;;;5193421;28;20575;-78
2022/11/17 14:49:53;;;;;;;54.53;32.53;;;9.60;99.90;;;;;;5200607;28;20030;-79
2022/11/17 14:52:24;;;;;;;43.28;29.38;;;9.50;99.90;;;;;;5197055;28;20037;-77
2022/11/17 14:54:57;;;;;;;59.03;42.70;;;9.60;99.90;;;;;;5205376;28;20068;-78
2022/11/17 14:57:32;;;;;;;9.52;6.03;;;9.60;99.90;;;;;;5183063;28;20060;-78
2022/11/17 15:00:11;;;;;;;8.00;6.75;;;9.70;99.90;;;;;;5179471;28;20029;-77
2022/11/17 15:02:47;;;;;;;6.75;4.80;;;9.70;99.90;;;;;;5205806;28;20348;-79
2022/11/17 15:05:21;;;;;;;4.65;3.70;;;9.80;99.90;;;;;;5196470;28;20076;-78
2022/11/17 15:07:55;;;;;;;5.10;3.87;;;9.80;99.90;;;;;;5207410;28;20033;-78
2022/11/17 15:10:26;;;;;;;5.32;4.28;;;9.90;99.90;;;;;;5202654;28;20027;-77
2022/11/17 15:12:59;;;;;;;6.50;4.47;;;9.90;99.90;;;;;;5202844;28;20029;-77
2022/11/17 15:15:35;;;;;;;6.93;4.18;;;9.80;99.90;;;;;;5184018;28;20033;-78
2022/11/17 15:18:09;;;;;;;9.30;4.22;;;9.70;99.90;;;;;;5185323;28;20387;-77
2022/11/17 15:20:40;;;;;;;9.55;8.05;;;9.70;99.90;;;;;;5173106;28;20037;-78
2022/11/17 15:23:14;;;;;;;38.40;34.75;;;9.50;99.90;;;;;;5191863;28;20038;-79
2022/11/17 15:25:49;;;;;;;6.93;6.22;;;9.50;99.90;;;;;;5203879;28;20035;-79
2022/11/17 15:28:23;;;;;;;42.08;37.58;;;9.50;99.90;;;;;;5199300;28;20025;-79
2022/11/17 15:30:54;;;;;;;19.13;17.17;;;9.60;99.90;;;;;;5170335;28;20035;-78
2022/11/17 15:33:25;;;;;;;6.50;4.60;;;9.50;99.90;;;;;;5200213;28;20052;-77
2022/11/17 15:36:04;;;;;;;10.40;6.97;;;9.60;99.90;;;;;;5202349;28;20037;-77
2022/11/17 15:38:36;;;;;;;13.63;9.07;;;9.60;99.90;;;;;;5202208;28;20039;-77